Time;durP1;ratioP1;P1;durP2;ratioP2;P2;SDS_P1;SDS_P2;PMS_P1;PMS_P2;Temp;Humidity;BMP_temperature;BMP_pressure;BME280_temperature;BME280_humidity;BME280_pressure;Samples;Min_cycle;Max_cycle;Signal;HPM_P1;HPM_P2
2023/09/28 00:00:51;;;;;;;7.17;6.67;;;;;;;19.08;84.57;100396.06;5032892;28;20276;-81
2023/09/28 00:03:17;;;;;;;6.20;5.80;;;;;;;19.07;84.81;100404.97;5043453;28;20209;-81
2023/09/28 00:05:43;;;;;;;7.07;6.03;;;;;;;19.02;84.91;100393.75;5043656;28;20236;-82
2023/09/28 00:08:09;;;;;;;6.63;6.03;;;;;;;18.99;84.88;100396.59;5045311;28;20213;-81
2023/09/28 00:10:36;;;;;;;6.53;6.03;;;;;;;18.96;85.27;100394.09;5044658;28;20244;-80
2023/09/28 00:13:01;;;;;;;6.50;5.90;;;;;;;18.94;84.95;100385.41;5044972;28;20643;-82
2023/09/28 00:15:29;;;;;;;5.67;5.23;;;;;;;18.91;85.45;100386.41;5046921;28;20208;-82
2023/09/28 00:17:56;;;;;;;6.30;5.83;;;;;;;18.82;85.90;100382.47;5044589;28;20217;-81
2023/09/28 00:20:23;;;;;;;7.40;5.63;;;;;;;18.78;86.10;100378.25;5049149;28;20237;-82
2023/09/28 00:22:51;;;;;;;6.23;5.73;;;;;;;18.79;86.00;100369.44;5046624;28;20415;-81
2023/09/28 00:25:19;;;;;;;6.27;5.87;;;;;;;18.74;86.35;100358.19;5045626;28;20205;-81
2023/09/28 00:27:46;;;;;;;6.07;5.57;;;;;;;18.68;86.65;100357.69;5046544;28;20214;-80
2023/09/28 00:30:18;;;;;;;5.40;5.03;;;;;;;18.66;86.63;100347.19;5046548;28;20225;-83
2023/09/28 00:32:44;;;;;;;6.10;5.60;;;;;;;18.67;86.19;100354.16;5046876;28;20251;-82
2023/09/28 00:35:12;;;;;;;6.47;5.77;;;;;;;18.62;86.59;100346.50;5045779;28;20206;-81
2023/09/28 00:37:37;;;;;;;6.10;5.60;;;;;;;18.60;86.74;100350.16;5045153;28;20232;-79
2023/09/28 00:40:08;;;;;;;6.90;6.20;;;;;;;18.56;86.88;100343.34;5042580;28;20740;-80
2023/09/28 00:42:34;;;;;;;6.73;6.17;;;;;;;18.55;87.00;100338.97;5044086;28;20205;-80
2023/09/28 00:45:00;;;;;;;6.60;6.10;;;;;;;18.56;86.80;100354.75;5042572;28;20200;-80
2023/09/28 00:47:26;;;;;;;6.10;5.73;;;;;;;18.53;87.03;100352.31;5043549;28;20205;-81
2023/09/28 00:49:54;;;;;;;6.77;5.77;;;;;;;18.52;87.19;100333.88;5025320;28;20227;-80
2023/09/28 00:52:22;;;;;;;6.10;5.57;;;;;;;18.50;86.99;100330.47;5024083;28;20252;-83
2023/09/28 00:54:49;;;;;;;6.27;5.77;;;;;;;18.51;87.04;100321.56;5022353;28;20671;-83
2023/09/28 00:57:15;;;;;;;5.70;5.30;;;;;;;18.46;86.94;100322.69;5024175;28;20200;-81
2023/09/28 00:59:42;;;;;;;6.27;5.77;;;;;;;18.42;87.15;100310.56;5040788;28;20229;-81
2023/09/28 01:02:08;;;;;;;6.73;5.90;;;;;;;18.39;87.41;100302.81;5044179;28;20241;-81
2023/09/28 01:04:35;;;;;;;6.40;5.90;;;;;;;18.40;87.48;100307.16;5043478;28;20214;-82
2023/09/28 01:07:00;;;;;;;6.50;5.90;;;;;;;18.40;87.72;100296.59;5044001;28;20206;-82
2023/09/28 01:09:28;;;;;;;6.10;5.60;;;;;;;18.36;88.16;100289.75;5043494;28;20661;-82
2023/09/28 01:11:55;;;;;;;6.30;5.60;;;;;;;18.33;88.39;100283.78;5044302;28;20676;-80
2023/09/28 01:14:22;;;;;;;6.10;5.60;;;;;;;18.36;87.97;100278.34;5043229;28;20206;-81
2023/09/28 01:16:47;;;;;;;5.77;5.27;;;;;;;18.34;88.60;100278.41;5043837;28;20205;-82
2023/09/28 01:19:14;;;;;;;6.90;6.33;;;;;;;18.30;88.73;100276.88;5044050;28;20238;-82
2023/09/28 01:21:39;;;;;;;7.90;6.93;;;;;;;18.28;89.51;100275.25;5028244;28;20209;-80
2023/09/28 01:24:09;;;;;;;6.67;6.10;;;;;;;18.22;89.56;100266.72;5024773;28;20645;-82
2023/09/28 01:26:34;;;;;;;6.83;6.23;;;;;;;18.23;89.60;100260.47;5025624;28;20293;-82
2023/09/28 01:29:01;;;;;;;6.40;6.00;;;;;;;18.24;89.31;100266.63;5044379;28;20249;-83
2023/09/28 01:31:27;;;;;;;6.30;5.80;;;;;;;18.25;88.97;100273.63;5043513;28;20215;-83
2023/09/28 01:33:54;;;;;;;6.93;6.37;;;;;;;18.23;88.59;100278.97;5044196;28;20257;-84
2023/09/28 01:36:19;;;;;;;9.20;7.47;;;;;;;18.24;88.95;100271.91;5044801;28;20279;-81
2023/09/28 01:38:51;;;;;;;7.67;6.93;;;;;;;18.21;88.87;100275.56;5043944;28;20739;-82
2023/09/28 01:41:18;;;;;;;7.20;6.53;;;;;;;18.19;89.10;100266.00;5044285;28;20207;-82
2023/09/28 01:43:44;;;;;;;6.50;5.93;;;;;;;18.20;88.94;100249.25;5043884;28;20208;-83
2023/09/28 01:46:11;;;;;;;8.43;6.03;;;;;;;18.14;89.20;100241.66;5044739;28;20203;-82
2023/09/28 01:48:38;;;;;;;7.00;6.40;;;;;;;18.10;88.88;100237.47;5027999;28;20607;-82
2023/09/28 01:51:03;;;;;;;6.57;6.03;;;;;;;18.05;88.64;100235.91;5023880;28;20206;-82
2023/09/28 01:53:30;;;;;;;6.97;6.47;;;;;;;17.99;89.00;100230.09;5024134;28;20214;-82
2023/09/28 01:55:58;;;;;;;7.10;6.47;;;;;;;17.98;88.87;100231.91;5024480;28;20218;-81
2023/09/28 01:58:26;;;;;;;7.83;7.23;;;;;;;17.90;89.56;100220.00;5024140;28;20772;-82
2023/09/28 02:00:52;;;;;;;6.93;6.43;;;;;;;17.92;89.24;100220.78;5023783;28;20211;-82
2023/09/28 02:03:21;;;;;;;7.53;6.93;;;;;;;17.90;89.38;100236.72;5023587;28;20206;-83
2023/09/28 02:05:48;;;;;;;6.67;6.17;;;;;;;17.93;89.40;100239.19;5024174;28;20204;-84
2023/09/28 02:08:15;;;;;;;7.27;6.63;;;;;;;17.92;88.94;100258.63;5027024;28;20291;-83
2023/09/28 02:10:40;;;;;;;9.00;7.27;;;;;;;17.89;89.55;100257.94;5028498;28;20232;-80
2023/09/28 02:13:07;;;;;;;7.00;6.40;;;;;;;17.88;89.33;100248.28;5037178;28;20209;-83
2023/09/28 02:15:33;;;;;;;7.57;7.07;;;;;;;17.90;89.51;100249.94;5038097;28;20204;-82
2023/09/28 02:18:00;;;;;;;7.17;6.63;;;;;;;17.95;90.07;100239.97;5027759;28;20216;-80
2023/09/28 02:20:25;;;;;;;7.77;7.03;;;;;;;17.93;91.23;100233.06;5026886;28;20256;-82
2023/09/28 02:22:53;;;;;;;8.17;7.30;;;;;;;17.82;94.28;100192.22;5027573;28;20201;-81
2023/09/28 02:25:20;;;;;;;7.97;7.00;;;;;;;17.87;94.11;100194.63;5027067;28;20212;-84
2023/09/28 02:27:47;;;;;;;8.07;7.37;;;;;;;17.79;94.60;100186.25;5027314;28;20252;-82
2023/09/28 02:30:17;;;;;;;7.27;6.73;;;;;;;17.85;95.02;100176.22;5031316;28;20303;-81
2023/09/28 02:32:45;;;;;;;7.20;6.70;;;;;;;17.87;94.24;100184.06;5047648;28;20209;-81
2023/09/28 02:35:14;;;;;;;7.80;7.10;;;;;;;17.82;94.84;100186.09;5039626;28;20260;-82
2023/09/28 02:37:41;;;;;;;7.60;7.10;;;;;;;17.81;95.56;100171.16;5047304;28;20228;-82
2023/09/28 02:40:09;;;;;;;7.23;6.73;;;;;;;17.72;96.24;100161.97;5036814;28;20267;-83
2023/09/28 02:42:35;;;;;;;7.37;6.77;;;;;;;17.80;96.35;100156.25;5026973;28;20206;-81
2023/09/28 02:45:01;;;;;;;8.03;7.33;;;;;;;17.89;96.09;100157.59;5043764;28;20217;-79
2023/09/28 02:47:28;;;;;;;10.73;7.23;;;;;;;17.92;96.02;100167.97;5047644;28;20770;-82
2023/09/28 02:49:54;;;;;;;7.10;6.53;;;;;;;17.91;96.38;100151.28;5047790;28;20688;-82
2023/09/28 02:52:21;;;;;;;7.23;6.63;;;;;;;17.97;95.76;100158.88;5046822;28;20203;-83
2023/09/28 02:54:46;;;;;;;8.73;7.23;;;;;;;17.97;95.17;100158.88;5046963;28;20205;-83
2023/09/28 02:57:13;;;;;;;7.30;6.70;;;;;;;18.01;94.24;100172.75;5048499;28;20280;-81
2023/09/28 02:59:38;;;;;;;6.60;6.10;;;;;;;18.04;93.05;100191.94;5048430;28;20232;-83
2023/09/28 03:02:05;;;;;;;7.23;6.63;;;;;;;18.05;92.88;100206.00;5043592;28;20731;-84
2023/09/28 03:04:33;;;;;;;7.40;6.90;;;;;;;17.98;93.96;100213.41;5047604;28;20622;-83
2023/09/28 03:07:02;;;;;;;7.63;7.13;;;;;;;18.03;93.22;100221.91;5047471;28;20204;-82
2023/09/28 03:09:27;;;;;;;7.67;7.13;;;;;;;18.06;93.07;100219.13;5046796;28;20232;-81
2023/09/28 03:11:54;;;;;;;8.27;7.67;;;;;;;18.02;92.51;100238.72;5047872;28;20254;-82
2023/09/28 03:14:20;;;;;;;7.90;7.30;;;;;;;18.07;92.18;100243.75;5048309;28;20212;-82
2023/09/28 03:16:46;;;;;;;8.17;7.40;;;;;;;18.06;91.82;100257.91;5053019;28;20208;-82
2023/09/28 03:19:12;;;;;;;8.17;7.50;;;;;;;18.04;91.92;100252.69;5040148;28;20714;-82
2023/09/28 03:21:39;;;;;;;8.70;8.10;;;;;;;17.94;92.14;100254.13;5049033;28;20201;-84
2023/09/28 03:24:08;;;;;;;8.47;7.77;;;;;;;17.79;93.68;100239.03;5046086;28;20223;-81
2023/09/28 03:26:34;;;;;;;7.90;7.20;;;;;;;17.80;94.64;100214.31;5028601;28;20293;-82
2023/09/28 03:29:00;;;;;;;8.23;7.57;;;;;;;17.80;95.52;100182.66;5029325;28;20255;-84
2023/09/28 03:31:27;;;;;;;7.47;6.97;;;;;;;17.85;95.86;100183.28;5030074;28;20209;-83
2023/09/28 03:33:53;;;;;;;7.80;7.13;;;;;;;17.83;96.74;100167.53;5027818;28;20210;-82
2023/09/28 03:36:19;;;;;;;7.17;6.67;;;;;;;17.88;96.70;100158.50;5029158;28;20218;-81
2023/09/28 03:38:46;;;;;;;7.87;7.30;;;;;;;17.97;95.83;100165.94;5030096;28;20205;-83
2023/09/28 03:41:14;;;;;;;9.80;8.00;;;;;;;18.13;94.76;100180.00;5028379;28;20277;-81
2023/09/28 03:43:42;;;;;;;10.07;7.50;;;;;;;18.10;95.07;100187.28;5033067;28;20200;-82
2023/09/28 03:46:08;;;;;;;7.27;6.67;;;;;;;18.14;95.52;100181.75;5049141;28;20291;-83
2023/09/28 03:48:35;;;;;;;6.93;6.33;;;;;;;18.17;95.38;100189.47;5049101;28;20200;-82
2023/09/28 03:51:02;;;;;;;7.03;6.63;;;;;;;18.18;95.20;100188.56;5048993;28;20244;-83
2023/09/28 03:53:28;;;;;;;7.37;6.77;;;;;;;18.10;96.34;100174.91;5050095;28;20209;-83
2023/09/28 03:55:55;;;;;;;7.20;6.60;;;;;;;18.15;96.13;100172.00;5054772;28;20228;-82
2023/09/28 03:58:22;;;;;;;7.50;7.00;;;;;;;18.15;95.92;100179.94;5054697;28;20189;-84
2023/09/28 04:00:49;;;;;;;8.17;7.57;;;;;;;18.11;96.86;100167.84;5054373;28;20229;-84
2023/09/28 04:03:15;;;;;;;7.30;6.90;;;;;;;18.06;98.79;100141.69;5052434;28;20213;-84
2023/09/28 04:05:42;;;;;;;7.83;7.23;;;;;;;18.06;98.71;100141.69;5052713;28;20185;-81
2023/09/28 04:08:08;;;;;;;7.43;6.90;;;;;;;18.14;98.39;100135.97;5056698;28;20243;-80
2023/09/28 04:10:35;;;;;;;7.93;7.43;;;;;;;18.15;97.64;100140.31;5056106;28;20232;-81
2023/09/28 04:13:02;;;;;;;8.67;7.97;;;;;;;18.10;98.11;100140.56;5054865;28;20207;-82
2023/09/28 04:15:30;;;;;;;8.13;7.43;;;;;;;18.14;97.83;100157.13;5055006;28;20192;-80
2023/09/28 04:17:56;;;;;;;7.20;6.70;;;;;;;18.09;97.26;100160.00;5054909;28;20209;-81
2023/09/28 04:20:23;;;;;;;7.33;6.93;;;;;;;18.05;97.76;100161.94;5054607;28;20256;-81
2023/09/28 04:22:49;;;;;;;7.17;6.47;;;;;;;18.08;97.94;100163.59;5049615;28;20232;-82
2023/09/28 04:25:16;;;;;;;7.53;6.93;;;;;;;18.11;97.12;100168.69;5054077;28;20215;-81
2023/09/28 04:27:42;;;;;;;8.00;7.33;;;;;;;18.14;95.80;100183.53;5052274;28;20209;-82
2023/09/28 04:30:09;;;;;;;7.73;7.20;;;;;;;18.16;95.30;100198.34;5044745;28;20221;-82
2023/09/28 04:32:37;;;;;;;7.77;7.10;;;;;;;18.17;94.70;100213.25;5040464;28;20210;-83
2023/09/28 04:35:06;;;;;;;7.10;6.60;;;;;;;18.16;93.31;100245.06;5025271;28;20264;-79
2023/09/28 04:37:32;;;;;;;7.60;7.00;;;;;;;18.23;91.90;100260.47;5027064;28;20205;-81
2023/09/28 04:39:59;;;;;;;6.93;6.43;;;;;;;18.23;92.23;100275.47;5026029;28;20258;-82
2023/09/28 04:42:26;;;;;;;7.47;6.97;;;;;;;18.26;92.01;100281.47;5025367;28;20209;-80
2023/09/28 04:44:52;;;;;;;7.17;6.43;;;;;;;18.30;91.58;100294.53;5039536;28;20205;-82
2023/09/28 04:47:19;;;;;;;7.97;7.37;;;;;;;18.32;91.87;100285.56;5045443;28;20214;-81
2023/09/28 04:49:48;;;;;;;6.43;5.93;;;;;;;18.33;89.29;100321.63;5045280;28;20253;-82
2023/09/28 04:52:14;;;;;;;5.97;5.47;;;;;;;18.35;88.94;100335.59;5045796;28;20209;-82
2023/09/28 04:54:40;;;;;;;5.70;5.20;;;;;;;18.44;86.93;100369.47;5044926;28;20232;-82
2023/09/28 04:57:07;;;;;;;6.53;6.03;;;;;;;18.52;86.09;100392.88;5045940;28;20654;-80
2023/09/28 04:59:36;;;;;;;6.33;5.87;;;;;;;18.58;87.25;100383.75;5045993;28;20300;-82
2023/09/28 05:02:02;;;;;;;6.00;5.60;;;;;;;18.57;86.79;100388.22;5044613;28;20217;-81
2023/09/28 05:04:29;;;;;;;6.00;5.50;;;;;;;18.58;85.27;100426.06;5026060;28;20216;-82
2023/09/28 05:06:59;;;;;;;6.70;6.20;;;;;;;18.65;85.08;100446.81;5026775;28;20209;-82
2023/09/28 05:09:26;;;;;;;5.60;5.17;;;;;;;18.66;83.77;100464.38;5030577;28;20234;-85
2023/09/28 05:11:53;;;;;;;6.00;5.50;;;;;;;18.76;83.46;100480.63;5045807;28;20208;-82
2023/09/28 05:14:23;;;;;;;5.80;5.30;;;;;;;18.76;83.20;100488.56;5045904;28;20200;-83
2023/09/28 05:16:50;;;;;;;5.80;5.30;;;;;;;18.76;85.35;100480.63;5046288;28;20205;-83
2023/09/28 05:19:16;;;;;;;6.03;5.63;;;;;;;18.75;84.53;100459.53;5044687;28;20237;-83
2023/09/28 05:21:43;;;;;;;5.90;5.50;;;;;;;18.80;84.39;100468.97;5046986;28;20209;-82
2023/09/28 05:24:11;;;;;;;6.17;5.67;;;;;;;18.75;84.32;100470.13;5046674;28;20236;-81
2023/09/28 05:26:37;;;;;;;5.43;5.00;;;;;;;18.81;84.79;100461.88;5046838;28;20205;-82
2023/09/28 05:29:04;;;;;;;5.83;4.87;;;;;;;18.82;83.25;100475.03;5047233;28;20290;-80
2023/09/28 05:31:30;;;;;;;5.73;5.20;;;;;;;18.86;82.25;100510.13;5028109;28;20206;-82
2023/09/28 05:33:57;;;;;;;5.80;5.40;;;;;;;18.85;85.06;100471.41;5025891;28;20210;-84
2023/09/28 05:36:23;;;;;;;6.27;5.77;;;;;;;18.75;86.80;100433.09;5026532;28;20213;-79
2023/09/28 05:38:50;;;;;;;5.20;4.60;;;;;;;18.71;83.56;100487.97;5026856;28;20663;-81
2023/09/28 05:41:17;;;;;;;6.67;5.00;;;;;;;18.73;82.44;100503.72;5027435;28;20236;-82
2023/09/28 05:43:44;;;;;;;5.70;5.20;;;;;;;18.84;82.99;100519.94;5031456;28;20205;-82
2023/09/28 05:46:10;;;;;;;5.23;4.73;;;;;;;18.90;81.00;100561.94;5028308;28;20231;-84
2023/09/28 05:48:37;;;;;;;5.47;5.03;;;;;;;18.99;81.30;100565.91;5026527;28;20208;-83
2023/09/28 05:51:03;;;;;;;5.07;4.67;;;;;;;18.96;81.07;100579.28;5031414;28;20209;-80
2023/09/28 05:53:30;;;;;;;5.83;5.40;;;;;;;19.00;81.78;100579.03;5035535;28;20209;-79
2023/09/28 05:55:56;;;;;;;6.00;5.47;;;;;;;19.05;81.96;100565.59;5050945;28;20209;-80
2023/09/28 05:58:24;;;;;;;4.97;4.57;;;;;;;18.98;81.65;100565.03;5053195;28;20197;-85
2023/09/28 06:00:50;;;;;;;5.90;5.50;;;;;;;19.03;85.04;100519.81;5052982;28;20339;-85
2023/09/28 06:03:17;;;;;;;5.80;5.37;;;;;;;18.96;84.83;100513.13;5047278;28;20216;-84
2023/09/28 06:05:43;;;;;;;6.10;5.53;;;;;;;18.92;84.69;100517.72;5036466;28;20220;-83
2023/09/28 06:08:10;;;;;;;6.57;6.07;;;;;;;18.95;84.39;100512.28;5036740;28;20212;-85
2023/09/28 06:10:38;;;;;;;5.63;5.17;;;;;;;19.07;83.93;100525.78;5036329;28;20719;-84
2023/09/28 06:13:04;;;;;;;6.33;5.73;;;;;;;19.08;83.93;100528.34;5035404;28;20213;-84
2023/09/28 06:15:32;;;;;;;6.10;5.60;;;;;;;19.11;83.19;100545.84;5036829;28;20220;-83
2023/09/28 06:17:58;;;;;;;5.60;5.20;;;;;;;19.13;85.17;100528.97;5036700;28;20593;-83
2023/09/28 06:20:25;;;;;;;6.70;6.03;;;;;;;19.16;86.54;100489.09;5035714;28;20232;-84
2023/09/28 06:22:53;;;;;;;5.67;5.20;;;;;;;19.22;86.79;100477.34;5036203;28;20205;-83
2023/09/28 06:25:19;;;;;;;5.23;4.73;;;;;;;19.05;87.86;100467.69;5035554;28;20220;-79
2023/09/28 06:27:47;;;;;;;5.67;5.27;;;;;;;19.08;88.38;100442.84;5034985;28;20221;-81
2023/09/28 06:30:13;;;;;;;5.57;5.10;;;;;;;19.04;89.56;100420.97;5034580;28;20630;-82
2023/09/28 06:32:41;;;;;;;5.43;5.00;;;;;;;19.03;90.21;100409.56;5034355;28;20209;-82
2023/09/28 06:35:10;;;;;;;6.03;5.47;;;;;;;18.99;90.25;100408.03;5016516;28;20216;-85
2023/09/28 06:37:36;;;;;;;5.93;5.50;;;;;;;18.98;91.35;100389.56;5028108;28;20210;-83
2023/09/28 06:40:03;;;;;;;6.13;5.40;;;;;;;18.96;92.36;100378.22;5034343;28;20236;-81
2023/09/28 06:42:30;;;;;;;6.20;5.60;;;;;;;18.94;92.74;100366.88;5027235;28;20206;-83
2023/09/28 06:44:57;;;;;;;6.07;5.57;;;;;;;18.99;92.46;100370.13;5036899;28;20214;-85
2023/09/28 06:47:24;;;;;;;6.43;5.57;;;;;;;18.96;88.25;100428.50;5034635;28;20245;-84
2023/09/28 06:49:51;;;;;;;4.93;4.63;;;;;;;19.06;91.50;100424.41;5034413;28;20287;-80
2023/09/28 06:52:19;;;;;;;6.23;5.70;;;;;;;19.18;91.77;100409.66;5034779;28;20217;-81
2023/09/28 06:54:46;;;;;;;6.00;5.50;;;;;;;19.19;92.60;100387.56;5024128;28;20209;-84
2023/09/28 06:57:23;;;;;;;5.77;5.37;;;;;;;19.20;94.06;100374.22;5020414;28;20241;-86
2023/09/28 06:59:57;;;;;;;6.23;5.83;;;;;;;19.22;94.13;100374.13;5025611;28;20236;-86
2023/09/28 07:02:24;;;;;;;5.73;5.33;;;;;;;19.21;94.67;100367.16;5036765;28;20637;-84
2023/09/28 07:05:25;;;;;;;;;;;;;;;;;;;;;
2023/09/28 07:07:51;;;;;;;6.03;5.63;;;;;;;19.16;90.59;100438.81;5038501;28;20288;-84
2023/09/28 07:10:18;;;;;;;5.93;5.37;;;;;;;19.19;92.89;100425.44;5039548;28;20604;-85
2023/09/28 07:12:45;;;;;;;5.50;5.20;;;;;;;19.16;94.19;100408.88;5026342;28;20237;-84
2023/09/28 07:15:11;;;;;;;6.40;5.90;;;;;;;19.14;93.75;100400.16;5034983;28;20213;-85
2023/09/28 07:22:01;;;;;;;6.10;5.50;;;;;;;19.08;95.19;100380.19;4929941;29;20624;-84
2023/09/28 07:24:37;;;;;;;6.07;5.60;;;;;;;19.10;94.02;100399.47;4980204;28;20221;-82
2023/09/28 07:27:04;;;;;;;5.87;5.47;;;;;;;19.07;95.58;100386.44;5004946;28;20231;-82
2023/09/28 07:29:30;;;;;;;5.73;5.33;;;;;;;19.04;93.68;100416.53;5014605;28;20231;-83
2023/09/28 07:31:58;;;;;;;6.00;5.60;;;;;;;19.12;94.03;100404.69;5028929;28;20215;-82
2023/09/28 07:34:25;;;;;;;6.70;6.10;;;;;;;19.11;95.11;100389.75;5046083;28;20268;-83
2023/09/28 07:36:51;;;;;;;11.60;6.03;;;;;;;19.15;95.62;100378.94;5048321;28;20211;-83
2023/09/28 07:39:20;;;;;;;6.10;5.70;;;;;;;19.16;95.61;100382.41;5048855;28;20255;-83
2023/09/28 07:41:51;;;;;;;5.97;5.57;;;;;;;19.13;95.86;100374.66;5043183;28;20547;-84
2023/09/28 07:44:18;;;;;;;5.73;5.33;;;;;;;19.07;96.14;100372.31;5039075;28;20583;-83
2023/09/28 07:46:45;;;;;;;5.93;5.53;;;;;;;19.00;96.32;100367.38;5047457;28;20273;-84
2023/09/28 07:49:12;;;;;;;6.03;5.53;;;;;;;18.97;94.12;100385.25;5035045;28;20236;-84
2023/09/28 07:51:39;;;;;;;6.57;4.90;;;;;;;18.94;94.12;100406.56;5030488;28;20561;-83
2023/09/28 07:54:06;;;;;;;5.97;5.57;;;;;;;19.08;93.57;100419.03;5029166;28;20208;-82
2023/09/28 07:56:32;;;;;;;6.00;5.43;;;;;;;19.17;92.71;100434.41;5017399;28;20201;-82
2023/09/28 07:59:01;;;;;;;5.50;5.10;;;;;;;19.17;93.81;100437.91;5017566;28;20710;-80
2023/09/28 08:01:27;;;;;;;6.47;5.97;;;;;;;18.99;92.41;100431.81;5027922;28;20234;-81
2023/09/28 08:03:54;;;;;;;8.30;6.00;;;;;;;19.10;91.16;100486.78;5032802;28;20300;-81
2023/09/28 08:06:20;;;;;;;5.63;5.13;;;;;;;19.20;92.49;100481.88;5032395;28;20224;-81
2023/09/28 08:08:47;;;;;;;6.10;5.70;;;;;;;19.13;94.85;100438.16;5033270;28;20265;-80
2023/09/28 08:11:14;;;;;;;6.10;5.70;;;;;;;19.05;95.56;100435.94;5033826;28;20213;-81
2023/09/28 08:13:41;;;;;;;5.87;5.47;;;;;;;19.07;95.51;100430.53;5032486;28;20209;-81
2023/09/28 08:16:08;;;;;;;5.87;5.47;;;;;;;19.02;94.35;100452.81;5032984;28;20209;-81
2023/09/28 08:18:35;;;;;;;5.33;4.90;;;;;;;19.03;89.64;100506.59;5033356;28;20210;-82
2023/09/28 08:21:03;;;;;;;5.77;5.27;;;;;;;19.12;93.88;100484.91;5034272;28;20240;-82
2023/09/28 08:23:33;;;;;;;6.00;5.60;;;;;;;19.21;92.35;100502.97;5033071;28;20209;-82
2023/09/28 08:25:59;;;;;;;5.70;5.20;;;;;;;19.32;88.70;100552.66;5031898;28;20223;-84
2023/09/28 08:28:26;;;;;;;5.57;5.07;;;;;;;19.44;86.40;100610.25;5031111;28;20202;-83
2023/09/28 08:30:53;;;;;;;6.00;5.40;;;;;;;19.53;84.32;100650.44;5032761;28;20229;-82
2023/09/28 08:33:21;;;;;;;6.20;5.10;;;;;;;19.71;82.47;100702.44;5031146;28;20690;-86
2023/09/28 08:35:48;;;;;;;6.80;5.43;;;;;;;19.93;83.39;100709.25;5030549;28;20563;-84
2023/09/28 08:38:15;;;;;;;4.90;4.50;;;;;;;20.01;82.64;100729.09;5033290;28;20221;-86
2023/09/28 08:40:42;;;;;;;4.87;4.30;;;;;;;20.16;80.76;100763.69;5032900;28;20312;-86
2023/09/28 08:43:12;;;;;;;5.23;4.77;;;;;;;20.27;79.04;100798.41;5032396;28;20220;-81
2023/09/28 08:45:40;;;;;;;5.00;4.60;;;;;;;20.41;80.03;100806.44;5032772;28;20206;-85
2023/09/28 08:48:11;;;;;;;5.93;5.27;;;;;;;20.49;79.56;100810.50;5033295;28;20214;-86
2023/09/28 08:50:39;;;;;;;5.20;4.80;;;;;;;20.42;78.09;100831.19;5033315;28;20236;-86
2023/09/28 08:53:07;;;;;;;5.03;4.50;;;;;;;20.50;77.13;100859.97;5034576;28;20625;-86
2023/09/28 08:55:34;;;;;;;4.70;4.17;;;;;;;20.57;76.65;100883.41;5035160;28;20584;-87
2023/09/28 08:58:02;;;;;;;5.27;4.87;;;;;;;20.65;76.25;100896.28;5034465;28;20216;-85
2023/09/28 09:00:30;;;;;;;5.30;4.90;;;;;;;20.60;76.10;100891.22;5036381;28;20226;-84
2023/09/28 09:02:56;;;;;;;5.07;4.67;;;;;;;20.72;74.88;100924.22;5034666;28;20220;-88
2023/09/28 09:05:28;;;;;;;4.50;4.20;;;;;;;20.82;75.00;100941.34;5032761;28;20215;-85
2023/09/28 09:07:59;;;;;;;5.13;4.63;;;;;;;20.95;74.30;100961.91;5034137;28;20569;-86
2023/09/28 09:10:28;;;;;;;4.90;4.43;;;;;;;20.92;74.31;100967.38;5032019;28;20297;-87
2023/09/28 09:12:55;;;;;;;4.33;4.00;;;;;;;21.04;73.74;100987.97;5032233;28;20202;-87
2023/09/28 09:15:21;;;;;;;4.40;4.10;;;;;;;21.09;74.18;100971.78;5031979;28;20483;-86
2023/09/28 09:17:48;;;;;;;5.17;4.77;;;;;;;20.99;73.85;100982.03;5028080;28;20257;-85
2023/09/28 09:20:14;;;;;;;4.53;4.20;;;;;;;21.04;72.55;100998.56;5035922;28;20233;-85
2023/09/28 09:22:41;;;;;;;6.20;4.70;;;;;;;21.14;73.26;100989.16;5032858;28;20280;-86
2023/09/28 09:25:09;;;;;;;5.20;4.70;;;;;;;21.23;73.05;101001.09;5016375;28;20206;-84
2023/09/28 09:27:35;;;;;;;4.93;4.57;;;;;;;21.21;73.40;100987.91;5035840;28;20205;-83
2023/09/28 09:30:05;;;;;;;5.60;5.17;;;;;;;21.22;73.88;100989.59;5035127;28;20234;-83
2023/09/28 09:32:32;;;;;;;5.23;4.83;;;;;;;21.20;72.56;100994.13;5035429;28;20209;-83
2023/09/28 09:34:59;;;;;;;4.97;4.40;;;;;;;21.23;71.46;101020.53;5031409;28;20216;-84
2023/09/28 09:37:25;;;;;;;5.10;4.70;;;;;;;21.40;72.28;101013.44;5026086;28;20214;-83
2023/09/28 09:39:52;;;;;;;4.47;4.17;;;;;;;21.45;71.83;101026.50;5015267;28;20244;-84
2023/09/28 09:42:27;;;;;;;6.07;4.57;;;;;;;21.42;71.39;101027.50;5014234;28;20230;-83
2023/09/28 09:44:57;;;;;;;4.70;4.30;;;;;;;21.48;71.88;101026.34;4681879;28;9999778;-82
2023/09/28 09:47:25;;;;;;;6.50;4.40;;;;;;;21.42;71.58;101017.72;5032200;28;20520;-83
2023/09/28 09:49:53;;;;;;;4.63;4.27;;;;;;;21.56;71.91;101021.44;5026332;28;20235;-84
2023/09/28 09:52:20;;;;;;;4.73;4.30;;;;;;;21.55;72.14;101012.63;5039535;28;20261;-83
2023/09/28 09:54:47;;;;;;;4.93;4.10;;;;;;;21.60;72.06;101010.59;5038869;28;20214;-82
2023/09/28 09:57:16;;;;;;;4.70;4.20;;;;;;;21.62;70.91;101037.03;5025081;28;20209;-82
2023/09/28 09:59:46;;;;;;;4.87;4.47;;;;;;;21.67;70.71;101047.44;5020537;28;20750;-83
2023/09/28 10:02:22;;;;;;;4.27;3.97;;;;;;;21.86;69.80;101069.34;5020173;28;20854;-85
2023/09/28 10:04:53;;;;;;;4.20;3.83;;;;;;;21.90;69.37;101072.72;5031127;28;20213;-84
2023/09/28 10:07:25;;;;;;;4.53;4.10;;;;;;;21.93;69.27;101085.84;5039185;28;20222;-82
2023/09/28 10:09:56;;;;;;;5.43;3.90;;;;;;;21.97;68.92;101082.91;5038429;28;20229;-81
2023/09/28 10:12:26;;;;;;;4.60;4.10;;;;;;;22.09;71.32;101072.53;5038224;28;20214;-81
2023/09/28 10:14:56;;;;;;;4.37;3.97;;;;;;;22.05;70.09;101079.81;5027969;28;20652;-82
2023/09/28 10:17:24;;;;;;;4.07;3.77;;;;;;;22.19;69.52;101066.59;5027727;28;20719;-83
2023/09/28 10:19:51;;;;;;;3.80;3.50;;;;;;;22.29;69.56;101087.38;5038275;28;20225;-82
2023/09/28 10:22:17;;;;;;;3.93;3.63;;;;;;;22.32;69.17;101076.53;5039359;28;20221;-83
2023/09/28 10:24:44;;;;;;;4.10;3.80;;;;;;;22.33;69.00;101094.22;5040048;28;20774;-83
2023/09/28 10:27:12;;;;;;;4.53;4.23;;;;;;;22.31;68.71;101086.34;5039641;28;20238;-83
2023/09/28 10:29:40;;;;;;;4.47;4.10;;;;;;;22.45;68.36;101098.00;5042563;28;20232;-83
2023/09/28 10:32:13;;;;;;;5.03;4.40;;;;;;;22.55;68.86;101112.47;5042809;28;20221;-82
2023/09/28 10:34:43;;;;;;;5.33;4.83;;;;;;;22.53;68.32;101117.88;5031555;28;20233;-83
2023/09/28 10:37:22;;;;;;;4.07;3.77;;;;;;;22.61;68.58;101106.78;5022772;28;20215;-82
2023/09/28 10:39:49;;;;;;;5.13;4.40;;;;;;;22.69;69.48;101093.03;5033198;28;20240;-82
2023/09/28 10:42:17;;;;;;;4.97;4.10;;;;;;;22.70;68.74;101102.72;5041861;28;20253;-84
2023/09/28 10:44:47;;;;;;;4.30;4.00;;;;;;;22.74;68.67;101101.59;5034193;28;20697;-82
2023/09/28 10:47:14;;;;;;;4.23;4.00;;;;;;;22.65;68.85;101100.31;5043371;28;20284;-83
2023/09/28 10:49:41;;;;;;;5.47;4.50;;;;;;;22.72;68.93;101080.41;5021147;28;20249;-84
2023/09/28 10:52:10;;;;;;;4.80;4.37;;;;;;;22.85;70.07;101069.00;5021863;28;20214;-84
2023/09/28 10:54:37;;;;;;;4.70;4.30;;;;;;;22.93;68.44;101088.91;5020993;28;20271;-84
2023/09/28 10:57:04;;;;;;;4.97;4.57;;;;;;;23.07;68.74;101085.44;5035299;28;20214;-84
2023/09/28 10:59:30;;;;;;;4.63;4.23;;;;;;;23.19;71.64;101026.09;5042120;28;20957;-83
2023/09/28 11:01:57;;;;;;;4.90;4.10;;;;;;;23.04;68.08;101063.47;5043440;28;20317;-84
2023/09/28 11:04:25;;;;;;;4.43;4.13;;;;;;;23.02;68.68;101074.19;5047036;28;20213;-86
2023/09/28 11:07:18;;;;;;;5.17;4.77;;;;;;;23.26;67.75;101090.47;5033234;28;20212;-85
2023/09/28 11:09:44;;;;;;;5.03;4.63;;;;;;;23.02;66.23;101122.13;5035395;28;20242;-85
2023/09/28 11:12:11;;;;;;;4.73;4.37;;;;;;;23.29;66.63;101124.94;5040561;28;20210;-86
2023/09/28 11:14:41;;;;;;;4.87;4.23;;;;;;;23.44;67.65;101109.78;5040482;28;20206;-83
2023/09/28 11:17:09;;;;;;;4.93;4.53;;;;;;;23.42;68.04;101119.69;5040374;28;20208;-80
2023/09/28 11:19:37;;;;;;;4.57;4.20;;;;;;;23.59;69.47;101060.00;5051224;28;20230;-84
2023/09/28 11:22:18;;;;;;;5.17;4.77;;;;;;;23.77;67.58;101080.19;5049809;28;20229;-86
2023/09/28 11:24:51;;;;;;;4.80;4.33;;;;;;;24.09;65.16;101130.59;5039224;28;20206;-87
2023/09/28 11:27:18;;;;;;;4.13;3.83;;;;;;;24.55;62.88;101178.31;5040818;28;20209;-84
2023/09/28 11:32:50;;;;;;;5.00;4.50;;;;;;;25.65;60.00;101288.53;4982138;28;20286;-82
2023/09/28 11:35:23;;;;;;;4.30;3.97;;;;;;;25.80;58.03;101351.69;5045432;28;20206;-84